Time;durP1;ratioP1;P1;durP2;ratioP2;P2;SDS_P1;SDS_P2;PMS_P1;PMS_P2;Temp;Humidity;BMP_temperature;BMP_pressure;BME280_temperature;BME280_humidity;BME280_pressure;Samples;Min_cycle;Max_cycle;Signal;HPM_P1;HPM_P2
2023/08/05 00:02:01;;;;;;;18.00;16.97;;;17.50;1.00;;;;;;4891039;29;20481;-81
2023/08/05 00:04:37;;;;;;;17.27;16.47;;;17.50;94.80;;;;;;4890284;29;20464;-87
2023/08/05 00:07:06;;;;;;;17.83;16.63;;;17.50;1.00;;;;;;4889871;29;20499;-81
2023/08/05 00:09:41;;;;;;;17.90;16.40;;;17.50;99.90;;;;;;4887833;29;20485;-81
2023/08/05 00:12:13;;;;;;;17.00;16.10;;;17.50;99.90;;;;;;4889451;29;20512;-82
2023/08/05 00:14:44;;;;;;;16.93;16.23;;;17.50;45.10;;;;;;4891476;29;20484;-84
2023/08/05 00:17:16;;;;;;;17.73;16.90;;;17.50;99.90;;;;;;4891314;29;20509;-87
2023/08/05 00:19:51;;;;;;;17.30;16.40;;;17.50;1.00;;;;;;4891227;29;20457;-83
2023/08/05 00:22:22;;;;;;;18.17;17.10;;;17.50;99.90;;;;;;4891727;29;20779;-81
2023/08/05 00:24:54;;;;;;;17.23;16.33;;;17.50;99.90;;;;;;4892866;29;20465;-83
2023/08/05 00:27:22;;;;;;;18.33;16.97;;;17.40;99.90;;;;;;4893364;29;20830;-81
2023/08/05 00:29:53;;;;;;;17.50;16.60;;;17.40;1.00;;;;;;4894540;29;20538;-83
2023/08/05 00:32:30;;;;;;;18.70;17.43;;;17.40;99.90;;;;;;4894151;29;20581;-84
2023/08/05 00:35:01;;;;;;;16.73;15.93;;;17.30;99.90;;;;;;4890583;29;20927;-82
2023/08/05 00:37:29;;;;;;;17.67;16.70;;;17.40;99.90;;;;;;4891423;29;20497;-84
2023/08/05 00:40:03;;;;;;;18.33;17.33;;;17.40;1.00;;;;;;4890334;29;20470;-83
2023/08/05 00:42:32;;;;;;;18.57;17.57;;;17.40;1.00;;;;;;4889031;29;20542;-82
2023/08/05 00:45:04;;;;;;;18.00;17.00;;;17.40;1.00;;;;;;4890848;29;20470;-83
2023/08/05 00:47:40;;;;;;;16.93;16.23;;;17.40;99.90;;;;;;4888993;29;20556;-86
2023/08/05 00:50:11;;;;;;;17.63;16.73;;;17.40;1.00;;;;;;4890215;29;20490;-82
2023/08/05 00:52:43;;;;;;;18.50;17.60;;;17.40;99.90;;;;;;4892536;29;20655;-81
2023/08/05 00:55:12;;;;;;;17.27;16.57;;;17.40;93.70;;;;;;4892200;29;20521;-83
2023/08/05 00:57:42;;;;;;;17.53;16.73;;;17.40;99.90;;;;;;4888336;29;20471;-83
2023/08/05 01:00:12;;;;;;;16.80;16.17;;;17.30;44.80;;;;;;4895178;29;20473;-83
2023/08/05 01:02:47;;;;;;;16.57;15.80;;;17.30;99.90;;;;;;4890493;29;20486;-81
2023/08/05 01:05:17;;;;;;;17.03;16.33;;;17.30;99.90;;;;;;4891221;29;20485;-82
2023/08/05 01:07:49;;;;;;;17.23;16.27;;;17.30;1.00;;;;;;4887797;29;20474;-81
2023/08/05 01:10:18;;;;;;;17.00;16.00;;;17.30;99.90;;;;;;4890600;29;20493;-83
2023/08/05 01:12:47;;;;;;;17.57;16.70;;;17.30;1.00;;;;;;4889460;29;20494;-82
2023/08/05 01:15:16;;;;;;;16.83;16.13;;;17.30;1.00;;;;;;4890975;29;20474;-82
2023/08/05 01:17:50;;;;;;;17.40;16.60;;;17.20;99.90;;;;;;4887865;29;20470;-83
2023/08/05 01:20:23;;;;;;;16.83;16.10;;;17.20;99.90;;;;;;4900664;29;20474;-86
2023/08/05 01:22:58;;;;;;;18.23;17.13;;;17.10;99.90;;;;;;4899710;29;20477;-81
2023/08/05 01:25:34;;;;;;;16.90;16.20;;;17.10;1.00;;;;;;4898763;29;20458;-84
2023/08/05 01:28:03;;;;;;;17.00;16.20;;;17.00;99.90;;;;;;4893127;29;20467;-83
2023/08/05 01:30:33;;;;;;;16.23;15.63;;;17.00;99.90;;;;;;4894859;29;20482;-84
2023/08/05 01:33:02;;;;;;;17.23;16.43;;;17.00;99.90;;;;;;4898046;28;20523;-82
2023/08/05 01:35:35;;;;;;;16.00;15.30;;;17.00;99.90;;;;;;4897682;29;20466;-83
2023/08/05 01:38:06;;;;;;;16.57;15.73;;;17.00;99.90;;;;;;4900134;29;20475;-82
2023/08/05 01:40:40;;;;;;;15.50;14.87;;;17.10;1.00;;;;;;4894910;29;20818;-87
2023/08/05 01:43:09;;;;;;;16.70;15.90;;;17.00;99.90;;;;;;4895904;29;20891;-81
2023/08/05 01:45:40;;;;;;;15.50;14.90;;;17.10;99.90;;;;;;4895173;29;20496;-85
2023/08/05 01:48:08;;;;;;;16.00;15.30;;;17.10;99.90;;;;;;4898108;29;20474;-82
2023/08/05 01:50:40;;;;;;;15.83;15.03;;;17.10;99.90;;;;;;4898526;29;20592;-84
2023/08/05 01:53:08;;;;;;;15.87;15.10;;;17.10;99.90;;;;;;4903290;29;20485;-82
2023/08/05 01:55:44;;;;;;;16.10;15.40;;;17.10;1.00;;;;;;4911842;29;20473;-83
2023/08/05 01:58:13;;;;;;;16.00;15.30;;;17.20;1.00;;;;;;4907277;29;20733;-85
2023/08/05 02:00:51;;;;;;;16.23;15.43;;;17.20;99.90;;;;;;4893211;29;20470;-81
2023/08/05 02:03:22;;;;;;;15.70;15.10;;;17.20;98.20;;;;;;4912824;29;20470;-85
2023/08/05 02:05:51;;;;;;;16.60;15.70;;;17.20;99.90;;;;;;4889333;29;20478;-84
2023/08/05 02:08:22;;;;;;;15.83;14.93;;;17.20;99.90;;;;;;4894373;29;20542;-84
2023/08/05 02:10:54;;;;;;;16.20;15.53;;;17.20;2.50;;;;;;4889117;29;20554;-83
2023/08/05 02:13:23;;;;;;;16.30;15.43;;;17.20;35.90;;;;;;4890530;29;20522;-83
2023/08/05 02:15:58;;;;;;;16.37;15.67;;;17.20;99.90;;;;;;4892504;29;20476;-83
2023/08/05 02:18:26;;;;;;;15.83;14.90;;;17.10;99.90;;;;;;4889211;29;20561;-85
2023/08/05 02:21:01;;;;;;;16.23;15.20;;;17.20;1.00;;;;;;4890135;29;20520;-85
2023/08/05 02:23:37;;;;;;;16.90;16.20;;;17.20;99.90;;;;;;4889421;29;21095;-84
2023/08/05 02:26:07;;;;;;;16.90;16.00;;;17.10;99.90;;;;;;4889200;29;20511;-84
2023/08/05 02:28:36;;;;;;;16.87;16.03;;;17.10;1.00;;;;;;4889710;29;20498;-83
2023/08/05 02:31:07;;;;;;;16.10;15.33;;;17.20;99.90;;;;;;4890882;29;20502;-86
2023/08/05 02:33:38;;;;;;;16.00;15.30;;;17.20;1.00;;;;;;4891085;29;20822;-83
2023/08/05 02:36:07;;;;;;;15.83;15.23;;;17.20;1.00;;;;;;4887305;29;20482;-84
2023/08/05 02:38:36;;;;;;;16.10;15.40;;;17.20;1.00;;;;;;4891723;29;20552;-85
2023/08/05 02:41:09;;;;;;;16.23;15.50;;;17.10;1.00;;;;;;4890021;29;20495;-81
2023/08/05 02:43:43;;;;;;;16.93;15.90;;;17.10;1.00;;;;;;4889424;29;20455;-85
2023/08/05 02:46:14;;;;;;;15.90;15.30;;;17.10;1.00;;;;;;4888553;29;20889;-82
2023/08/05 02:48:45;;;;;;;16.07;15.37;;;17.10;99.90;;;;;;4904480;29;20975;-83
2023/08/05 02:51:14;;;;;;;16.50;15.80;;;17.10;99.90;;;;;;4885678;29;20584;-83
2023/08/05 02:53:49;;;;;;;15.73;15.03;;;17.10;99.90;;;;;;4902349;29;20470;-84
2023/08/05 02:56:22;;;;;;;15.83;15.00;;;17.00;57.70;;;;;;4890186;29;20466;-82
2023/08/05 02:58:50;;;;;;;16.00;15.10;;;17.00;99.90;;;;;;4888451;29;20509;-84
2023/08/05 03:01:23;;;;;;;16.07;15.47;;;17.00;1.00;;;;;;4891433;29;20481;-83
2023/08/05 03:03:53;;;;;;;16.30;15.60;;;17.00;99.90;;;;;;4888544;29;20466;-84
2023/08/05 03:06:22;;;;;;;16.30;15.50;;;17.00;68.60;;;;;;4891210;29;20469;-83
2023/08/05 03:08:52;;;;;;;15.80;15.20;;;17.00;99.90;;;;;;4887756;29;20450;-81
2023/08/05 03:11:24;;;;;;;16.30;15.60;;;16.90;1.00;;;;;;4887120;29;20521;-82
2023/08/05 03:13:54;;;;;;;16.47;15.70;;;16.90;99.90;;;;;;4887542;29;20482;-86
2023/08/05 03:16:25;;;;;;;17.20;16.20;;;16.90;1.00;;;;;;4892828;29;20474;-84
2023/08/05 03:18:54;;;;;;;16.90;16.03;;;16.90;99.90;;;;;;4888933;29;20839;-85
2023/08/05 03:21:23;;;;;;;18.00;16.83;;;16.90;36.30;;;;;;4886768;29;20531;-80
2023/08/05 03:23:51;;;;;;;16.37;15.57;;;16.90;99.90;;;;;;4887863;29;20466;-86
2023/08/05 03:26:22;;;;;;;16.63;15.90;;;16.80;1.00;;;;;;4890698;29;20553;-83
2023/08/05 03:28:50;;;;;;;16.20;15.40;;;16.90;45.00;;;;;;4888352;29;20478;-83
2023/08/05 03:31:23;;;;;;;17.03;16.13;;;16.90;58.70;;;;;;4888148;29;22281;-82
2023/08/05 03:33:51;;;;;;;16.80;15.90;;;16.80;1.00;;;;;;4887570;29;20459;-83
2023/08/05 03:36:23;;;;;;;17.03;16.03;;;16.90;1.00;;;;;;4888046;29;20565;-84
2023/08/05 03:38:58;;;;;;;16.33;15.60;;;16.90;35.80;;;;;;4891847;29;20470;-81
2023/08/05 03:41:28;;;;;;;16.23;15.50;;;16.90;1.00;;;;;;4889279;29;20487;-82
2023/08/05 03:44:01;;;;;;;16.60;15.77;;;16.90;1.00;;;;;;4902209;29;20520;-81
2023/08/05 03:46:29;;;;;;;16.20;15.53;;;17.00;99.90;;;;;;4887582;29;20481;-84
2023/08/05 03:49:02;;;;;;;17.00;16.20;;;16.90;99.90;;;;;;4890841;29;20458;-82
2023/08/05 03:51:33;;;;;;;16.93;15.87;;;16.90;1.00;;;;;;4901127;29;20512;-84
2023/08/05 03:54:04;;;;;;;17.00;16.03;;;16.90;1.00;;;;;;4890102;29;20481;-81
2023/08/05 03:56:40;;;;;;;16.57;15.77;;;16.90;99.90;;;;;;4888752;29;20478;-85
2023/08/05 03:59:11;;;;;;;16.80;15.80;;;16.90;99.90;;;;;;4887053;29;20474;-82
2023/08/05 04:01:45;;;;;;;16.67;15.87;;;17.00;99.90;;;;;;4884459;29;20514;-82
2023/08/05 04:04:19;;;;;;;16.90;16.10;;;16.90;99.90;;;;;;4897035;29;20515;-83
2023/08/05 04:06:48;;;;;;;16.13;15.53;;;16.90;99.90;;;;;;4890342;29;20454;-84
2023/08/05 04:09:22;;;;;;;16.57;15.87;;;16.90;1.00;;;;;;4892609;29;20466;-88
2023/08/05 04:11:53;;;;;;;17.13;16.27;;;16.90;99.90;;;;;;4889901;29;20530;-83
2023/08/05 04:14:24;;;;;;;16.60;15.80;;;16.90;1.00;;;;;;4886046;29;20902;-82
2023/08/05 04:16:55;;;;;;;17.50;16.47;;;16.90;1.00;;;;;;4888612;29;20480;-84
2023/08/05 04:19:25;;;;;;;16.97;16.27;;;16.90;1.00;;;;;;4885202;29;20568;-88
2023/08/05 04:21:54;;;;;;;17.00;16.30;;;16.90;99.90;;;;;;4888322;29;20490;-86
2023/08/05 04:24:29;;;;;;;16.37;15.67;;;16.90;1.00;;;;;;4890681;29;20558;-87
2023/08/05 04:27:03;;;;;;;16.40;15.70;;;16.90;99.90;;;;;;4888927;29;20904;-82
2023/08/05 04:29:33;;;;;;;16.57;15.87;;;16.90;99.90;;;;;;4886663;29;20486;-86
2023/08/05 04:32:05;;;;;;;17.37;16.17;;;16.90;1.00;;;;;;4887690;29;20564;-85
2023/08/05 04:34:36;;;;;;;16.70;16.00;;;16.90;1.00;;;;;;4889825;29;20497;-83
2023/08/05 04:37:18;;;;;;;16.30;15.60;;;16.90;1.00;;;;;;4887241;29;20458;-82
2023/08/05 04:39:50;;;;;;;16.97;16.37;;;16.90;99.90;;;;;;4888578;29;20454;-81
2023/08/05 04:42:20;;;;;;;16.77;16.07;;;16.90;99.90;;;;;;4889864;29;20565;-83
2023/08/05 04:44:51;;;;;;;17.53;16.73;;;16.90;99.90;;;;;;4891364;29;20464;-82
2023/08/05 04:47:20;;;;;;;17.40;16.60;;;16.80;99.90;;;;;;4903987;29;21011;-83
2023/08/05 04:49:51;;;;;;;16.27;15.40;;;16.90;99.90;;;;;;4911095;29;21030;-86
2023/08/05 04:52:22;;;;;;;17.00;16.20;;;16.80;1.00;;;;;;4893723;29;20505;-84
2023/08/05 04:54:52;;;;;;;17.60;16.43;;;16.90;1.00;;;;;;4895292;29;20561;-87
2023/08/05 04:57:22;;;;;;;17.17;16.30;;;16.90;1.00;;;;;;4891746;29;21059;-81
2023/08/05 04:59:50;;;;;;;15.80;15.20;;;16.80;36.60;;;;;;4893540;29;20466;-83
2023/08/05 05:02:18;;;;;;;17.00;16.30;;;16.80;99.90;;;;;;4892506;29;20486;-82
2023/08/05 05:04:52;;;;;;;17.17;16.00;;;16.80;1.00;;;;;;4889078;29;20477;-85
2023/08/05 05:07:23;;;;;;;16.90;16.10;;;16.90;6.50;;;;;;4890006;29;21329;-84
2023/08/05 05:09:57;;;;;;;16.90;16.00;;;16.90;99.90;;;;;;4890788;29;20458;-85
2023/08/05 05:12:29;;;;;;;18.37;17.30;;;16.90;1.00;;;;;;4892835;29;20490;-85
2023/08/05 05:14:57;;;;;;;17.10;16.27;;;16.90;45.00;;;;;;4890934;29;20470;-88
2023/08/05 05:17:34;;;;;;;17.80;17.00;;;17.00;1.00;;;;;;4890006;29;20565;-88
2023/08/05 05:20:05;;;;;;;17.40;16.60;;;17.00;1.00;;;;;;4885153;29;20477;-85
2023/08/05 05:22:40;;;;;;;17.47;16.57;;;17.00;1.00;;;;;;4888512;29;20484;-86
2023/08/05 05:25:16;;;;;;;18.40;17.50;;;17.00;99.90;;;;;;4888406;29;20486;-85
2023/08/05 05:27:46;;;;;;;17.17;16.40;;;17.00;1.00;;;;;;4887979;29;20466;-85
2023/08/05 05:30:14;;;;;;;18.10;17.10;;;17.00;1.00;;;;;;4884777;29;20776;-84
2023/08/05 05:32:45;;;;;;;17.60;16.77;;;17.00;99.90;;;;;;4890524;29;20498;-86
2023/08/05 05:35:17;;;;;;;17.70;16.80;;;17.10;1.00;;;;;;4885697;29;20827;-85
2023/08/05 05:37:47;;;;;;;17.57;16.57;;;17.00;99.90;;;;;;4888776;29;20482;-83
2023/08/05 05:40:19;;;;;;;17.40;16.70;;;17.00;1.00;;;;;;4884302;29;20459;-84
2023/08/05 05:42:53;;;;;;;16.97;16.17;;;17.00;1.00;;;;;;4886201;29;21039;-84
2023/08/05 05:45:33;;;;;;;17.70;16.80;;;17.00;99.90;;;;;;4889658;29;20466;-87
2023/08/05 05:48:02;;;;;;;16.73;15.93;;;17.00;1.00;;;;;;4885297;29;20979;-84
2023/08/05 05:50:31;;;;;;;17.40;16.60;;;17.10;99.90;;;;;;4893881;29;20478;-84
2023/08/05 05:52:59;;;;;;;17.60;16.60;;;17.10;99.90;;;;;;4887273;29;20587;-85
2023/08/05 05:55:32;;;;;;;17.17;16.47;;;17.10;99.90;;;;;;4890580;29;20476;-84
2023/08/05 05:58:02;;;;;;;17.77;16.97;;;17.10;1.00;;;;;;4887185;29;21148;-88
2023/08/05 06:00:31;;;;;;;17.50;16.70;;;17.10;1.00;;;;;;4889213;29;20485;-84
2023/08/05 06:03:00;;;;;;;18.33;17.27;;;17.10;99.90;;;;;;4890941;29;20486;-85
2023/08/05 06:05:32;;;;;;;17.13;16.37;;;17.10;99.90;;;;;;4893564;29;20558;-84
2023/08/05 06:08:05;;;;;;;17.50;16.60;;;17.10;1.00;;;;;;4888878;29;20494;-85
2023/08/05 06:10:38;;;;;;;17.27;16.50;;;17.20;99.90;;;;;;4887621;29;20497;-87
2023/08/05 06:13:14;;;;;;;17.40;16.60;;;17.20;99.90;;;;;;4894316;29;20583;-87
2023/08/05 06:15:45;;;;;;;17.90;16.90;;;17.20;99.90;;;;;;4901603;29;20467;-83
2023/08/05 06:18:21;;;;;;;17.07;16.37;;;17.30;99.90;;;;;;4896106;29;20560;-87
2023/08/05 06:20:53;;;;;;;17.00;16.30;;;17.30;1.50;;;;;;4894947;29;20885;-84
2023/08/05 06:23:24;;;;;;;18.03;17.23;;;17.30;99.90;;;;;;4904597;29;20473;-83
2023/08/05 06:26:04;;;;;;;17.97;17.10;;;17.40;57.90;;;;;;4899451;29;20533;-85
2023/08/05 06:28:37;;;;;;;18.17;16.97;;;17.40;99.90;;;;;;4893772;29;20463;-84
2023/08/05 06:31:09;;;;;;;17.00;16.30;;;17.40;99.90;;;;;;4894525;29;20546;-89
2023/08/05 06:33:45;;;;;;;17.60;16.80;;;17.50;99.90;;;;;;4896343;29;20509;-87
2023/08/05 06:36:20;;;;;;;18.57;17.37;;;17.50;99.90;;;;;;4897781;29;20498;-83
2023/08/05 06:38:52;;;;;;;16.90;16.30;;;17.50;99.90;;;;;;4894429;29;20463;-88
2023/08/05 06:41:23;;;;;;;17.80;16.87;;;17.60;1.00;;;;;;4893865;29;20563;-85
2023/08/05 06:43:56;;;;;;;18.00;17.20;;;17.60;99.90;;;;;;4895638;29;20996;-88
2023/08/05 06:46:32;;;;;;;18.10;16.97;;;17.70;57.80;;;;;;4887592;29;20469;-82
2023/08/05 06:49:10;;;;;;;16.77;15.87;;;17.70;99.90;;;;;;4888481;29;20843;-81
2023/08/05 06:51:39;;;;;;;17.27;16.47;;;17.70;1.00;;;;;;4889574;29;20485;-84
2023/08/05 06:54:17;;;;;;;16.90;16.23;;;17.90;1.00;;;;;;4886299;29;20462;-84
2023/08/05 06:56:46;;;;;;;17.20;16.40;;;17.90;99.90;;;;;;4891106;29;20538;-84
2023/08/05 06:59:19;;;;;;;17.60;16.80;;;18.00;35.40;;;;;;4893366;29;20475;-85
2023/08/05 07:01:51;;;;;;;17.20;16.40;;;18.00;1.00;;;;;;4889631;29;20552;-88
2023/08/05 07:04:26;;;;;;;17.10;16.47;;;18.00;1.00;;;;;;4891665;29;20482;-89
2023/08/05 07:07:00;;;;;;;17.17;16.40;;;18.00;28.70;;;;;;4887585;29;20451;-86
2023/08/05 07:09:36;;;;;;;16.93;16.33;;;18.10;99.90;;;;;;4887763;29;20519;-82
2023/08/05 07:12:11;;;;;;;17.70;17.00;;;18.20;1.00;;;;;;4891198;29;20530;-88
2023/08/05 07:14:56;;;;;;;17.60;16.90;;;18.20;1.00;;;;;;4884764;29;21067;-82
2023/08/05 07:17:25;;;;;;;17.47;16.57;;;18.30;1.00;;;;;;4883074;29;20458;-80
2023/08/05 07:19:58;;;;;;;17.80;17.00;;;18.30;1.00;;;;;;4885503;29;20504;-81
2023/08/05 07:22:34;;;;;;;16.90;16.10;;;18.40;99.90;;;;;;4884226;29;21013;-81
2023/08/05 07:25:10;;;;;;;17.13;16.23;;;18.40;99.90;;;;;;4883860;29;20745;-81
2023/08/05 07:27:44;;;;;;;16.90;16.30;;;18.50;99.90;;;;;;4883158;29;20490;-81
2023/08/05 07:30:20;;;;;;;17.70;16.90;;;18.60;99.90;;;;;;4886362;29;20464;-83
2023/08/05 07:32:53;;;;;;;17.93;17.13;;;18.70;99.90;;;;;;4885132;29;20494;-80
2023/08/05 07:35:29;;;;;;;16.63;15.93;;;18.70;99.90;;;;;;4882056;29;20466;-84
2023/08/05 07:37:58;;;;;;;17.33;16.43;;;18.70;1.00;;;;;;4885467;29;20553;-81
2023/08/05 07:40:29;;;;;;;17.57;16.77;;;18.80;99.90;;;;;;4881652;29;20697;-80
2023/08/05 07:43:04;;;;;;;17.63;16.97;;;18.80;1.00;;;;;;4885897;29;20484;-81
2023/08/05 07:45:48;;;;;;;17.47;16.77;;;18.80;1.00;;;;;;4885310;29;21049;-83
2023/08/05 07:48:35;;;;;;;17.07;16.37;;;18.90;1.00;;;;;;4888884;29;20546;-79
2023/08/05 07:51:06;;;;;;;16.70;16.10;;;18.90;1.00;;;;;;4885327;29;21087;-80
2023/08/05 07:53:45;;;;;;;17.35;16.55;;;18.90;1.00;;;;;;4886692;29;20554;-79
2023/08/05 07:56:27;;;;;;;16.77;16.07;;;18.90;1.00;;;;;;4901496;29;20207;-86
2023/08/05 07:59:06;;;;;;;17.43;16.60;;;19.00;1.00;;;;;;4885262;29;20459;-87
2023/08/05 08:01:51;;;;;;;17.57;16.87;;;19.00;1.00;;;;;;4895321;29;20481;-83
2023/08/05 08:04:20;;;;;;;17.10;16.40;;;19.00;1.00;;;;;;4888061;29;20439;-87
2023/08/05 08:06:57;;;;;;;16.57;15.87;;;19.00;1.00;;;;;;4887039;29;20996;-79
2023/08/05 08:09:31;;;;;;;17.57;16.87;;;19.10;1.00;;;;;;4889017;29;20476;-84
2023/08/05 08:12:04;;;;;;;16.60;16.00;;;19.20;1.00;;;;;;4887134;29;20531;-87
2023/08/05 08:14:46;;;;;;;19.00;17.73;;;19.20;1.00;;;;;;4886467;29;20525;-86
2023/08/05 08:17:22;;;;;;;17.70;17.00;;;19.30;1.00;;;;;;4885586;29;20494;-79
2023/08/05 08:20:04;;;;;;;17.13;16.33;;;19.30;1.00;;;;;;4884367;29;20772;-81
2023/08/05 08:22:35;;;;;;;17.50;16.60;;;19.50;99.90;;;;;;4878801;29;20487;-79
2023/08/05 08:25:08;;;;;;;16.70;16.10;;;19.50;99.90;;;;;;4882913;29;20459;-81
2023/08/05 08:27:48;;;;;;;16.40;15.80;;;19.60;99.90;;;;;;4901152;29;20878;-80
2023/08/05 08:30:24;;;;;;;16.23;15.53;;;19.60;99.90;;;;;;4889187;29;20994;-81
2023/08/05 08:32:59;;;;;;;16.03;15.33;;;19.60;99.90;;;;;;4884714;29;20495;-81
2023/08/05 08:35:39;;;;;;;15.70;15.20;;;19.60;99.90;;;;;;4884709;29;20549;-78
2023/08/05 08:38:12;;;;;;;16.10;15.60;;;19.60;99.90;;;;;;4884966;29;20463;-79
2023/08/05 08:40:53;;;;;;;16.90;16.00;;;19.60;99.90;;;;;;4886170;29;20462;-81
2023/08/05 08:43:33;;;;;;;15.97;15.37;;;19.70;99.90;;;;;;4884984;29;22152;-79
2023/08/05 08:46:05;;;;;;;16.10;15.43;;;19.70;99.90;;;;;;4885727;29;20457;-79
2023/08/05 08:48:43;;;;;;;15.93;15.43;;;19.80;99.90;;;;;;4888621;29;20474;-80
2023/08/05 08:51:18;;;;;;;16.47;15.93;;;19.80;64.30;;;;;;4886934;29;21193;-80
2023/08/05 08:53:54;;;;;;;16.33;15.73;;;19.80;23.00;;;;;;4887613;29;20514;-81
2023/08/05 08:56:29;;;;;;;16.00;15.50;;;19.80;15.90;;;;;;4888749;29;20542;-80
2023/08/05 08:59:02;;;;;;;15.97;15.47;;;19.80;1.00;;;;;;4889397;29;20459;-80
2023/08/05 09:01:34;;;;;;;16.03;15.57;;;19.90;1.00;;;;;;4888189;29;20477;-80
2023/08/05 09:04:07;;;;;;;15.40;14.90;;;19.90;1.00;;;;;;4885744;29;20987;-80
2023/08/05 09:06:38;;;;;;;17.23;16.27;;;20.00;1.00;;;;;;4888164;29;20509;-80
2023/08/05 09:09:10;;;;;;;15.50;15.00;;;20.00;1.00;;;;;;4885901;29;20462;-80
2023/08/05 09:11:42;;;;;;;15.90;15.30;;;20.00;1.00;;;;;;4886983;29;20482;-81
2023/08/05 09:14:16;;;;;;;16.00;15.50;;;20.00;1.00;;;;;;4887031;29;20932;-81
2023/08/05 09:16:58;;;;;;;14.97;14.57;;;20.00;1.00;;;;;;4889511;29;20520;-79
2023/08/05 09:19:33;;;;;;;15.37;14.87;;;20.10;1.00;;;;;;4889079;29;20491;-80
2023/08/05 09:22:02;;;;;;;15.37;14.73;;;20.20;1.00;;;;;;4888196;29;20481;-80
2023/08/05 09:24:35;;;;;;;15.30;14.77;;;20.30;1.00;;;;;;4886217;29;20546;-79
2023/08/05 09:27:07;;;;;;;16.27;15.47;;;20.30;1.00;;;;;;4887501;29;20459;-81
2023/08/05 09:29:39;;;;;;;15.57;15.07;;;20.40;1.00;;;;;;4888282;29;20462;-81
2023/08/05 09:32:23;;;;;;;15.10;14.70;;;20.50;1.00;;;;;;4886455;29;20483;-80
2023/08/05 09:35:12;;;;;;;14.73;14.30;;;20.50;1.00;;;;;;4886043;29;20463;-78
2023/08/05 09:37:57;;;;;;;15.43;14.70;;;20.50;99.90;;;;;;4885607;29;20731;-78
2023/08/05 09:40:32;;;;;;;15.07;14.67;;;20.50;99.90;;;;;;4886297;29;20585;-80
2023/08/05 09:43:03;;;;;;;16.40;15.63;;;20.50;99.90;;;;;;4901964;29;20486;-80
2023/08/05 09:45:37;;;;;;;15.10;14.60;;;20.40;99.90;;;;;;4885987;29;20455;-80
2023/08/05 09:48:13;;;;;;;14.80;14.30;;;20.50;99.90;;;;;;4887366;29;20462;-79
2023/08/05 09:50:52;;;;;;;14.77;14.27;;;20.60;1.00;;;;;;4883599;29;21059;-81
2023/08/05 09:53:29;;;;;;;15.33;14.83;;;20.80;1.00;;;;;;4889214;29;20457;-79
2023/08/05 09:56:01;;;;;;;14.67;14.27;;;20.80;1.00;;;;;;4885034;29;20699;-79
2023/08/05 09:58:38;;;;;;;14.80;14.40;;;20.90;99.90;;;;;;4886896;29;20503;-80
2023/08/05 10:01:08;;;;;;;15.20;14.67;;;21.10;1.00;;;;;;4889800;29;20554;-81
2023/08/05 10:03:41;;;;;;;14.27;13.87;;;21.00;99.90;;;;;;4888235;29;21515;-80
2023/08/05 10:06:18;;;;;;;14.70;14.27;;;21.00;99.90;;;;;;4888358;29;20467;-81
2023/08/05 10:08:52;;;;;;;14.90;14.30;;;20.90;99.90;;;;;;4885620;29;20471;-80
2023/08/05 10:11:27;;;;;;;15.07;14.50;;;20.90;99.90;;;;;;4890129;29;20490;-80
2023/08/05 10:14:01;;;;;;;17.10;16.10;;;20.80;99.90;;;;;;4886237;29;20486;-80
2023/08/05 10:16:34;;;;;;;15.87;15.33;;;20.70;99.90;;;;;;4888948;29;20459;-81
2023/08/05 10:19:02;;;;;;;16.23;15.63;;;20.70;99.90;;;;;;4887770;29;20477;-81
2023/08/05 10:21:40;;;;;;;15.37;14.87;;;20.70;99.90;;;;;;4888155;29;20479;-79
2023/08/05 10:24:22;;;;;;;15.10;14.60;;;20.60;99.90;;;;;;4888986;29;20470;-80
2023/08/05 10:26:59;;;;;;;15.17;14.60;;;20.60;99.90;;;;;;4883835;29;20505;-80
2023/08/05 10:29:52;;;;;;;14.93;14.53;;;20.70;99.90;;;;;;4885043;29;20461;-78
2023/08/05 10:32:33;;;;;;;15.00;14.50;;;20.70;99.90;;;;;;4886224;29;20564;-79
2023/08/05 10:35:26;;;;;;;14.47;13.97;;;20.70;99.90;;;;;;4884680;29;20476;-81
2023/08/05 10:38:16;;;;;;;14.97;14.47;;;20.70;99.90;;;;;;4884128;29;21036;-78
2023/08/05 10:40:51;;;;;;;14.17;13.77;;;20.80;99.90;;;;;;4886326;29;20481;-77
2023/08/05 10:43:48;;;;;;;14.70;14.20;;;20.80;99.90;;;;;;4883819;29;20462;-79
2023/08/05 10:46:23;;;;;;;15.03;14.53;;;21.00;99.90;;;;;;4881080;29;20469;-78
2023/08/05 10:48:58;;;;;;;15.03;14.53;;;21.10;99.90;;;;;;4887005;29;20459;-79
2023/08/05 10:51:33;;;;;;;15.27;14.77;;;21.20;99.90;;;;;;4884792;29;20483;-77
2023/08/05 10:54:11;;;;;;;15.33;14.73;;;21.20;99.90;;;;;;4887515;29;20456;-80
2023/08/05 10:56:44;;;;;;;15.50;14.95;;;21.30;99.90;;;;;;4886880;29;20460;-80
2023/08/05 10:59:45;;;;;;;15.00;14.50;;;21.30;99.90;;;;;;4891340;29;20651;-82
2023/08/05 11:02:23;;;;;;;14.60;14.20;;;21.30;99.90;;;;;;4886911;29;20478;-79
2023/08/05 11:05:06;;;;;;;15.00;14.50;;;21.30;99.90;;;;;;4892208;29;20544;-82
2023/08/05 11:07:43;;;;;;;14.90;14.40;;;21.20;99.90;;;;;;4889227;29;20460;-80
2023/08/05 11:10:20;;;;;;;14.63;14.00;;;21.10;99.90;;;;;;4892804;29;20488;-80
2023/08/05 11:13:01;;;;;;;14.70;14.23;;;21.10;99.90;;;;;;4883630;29;20500;-77
2023/08/05 11:15:40;;;;;;;15.17;14.57;;;21.10;99.90;;;;;;4883655;29;20506;-80
2023/08/05 11:18:20;;;;;;;14.90;14.40;;;21.10;99.90;;;;;;4883352;29;20470;-79
2023/08/05 11:20:51;;;;;;;15.20;14.53;;;21.10;99.90;;;;;;4883028;29;20980;-78
2023/08/05 11:23:21;;;;;;;15.50;14.80;;;21.10;99.90;;;;;;4884429;29;20466;-78
2023/08/05 11:26:00;;;;;;;14.63;14.23;;;21.10;99.90;;;;;;4883975;29;20452;-78
2023/08/05 11:28:35;;;;;;;15.30;14.70;;;21.10;99.90;;;;;;4884002;29;20465;-80
2023/08/05 11:31:11;;;;;;;15.00;14.50;;;21.20;99.90;;;;;;4886777;29;20470;-79
2023/08/05 11:33:52;;;;;;;14.77;14.27;;;21.30;99.90;;;;;;4883255;29;21085;-81
2023/08/05 11:36:28;;;;;;;14.97;14.57;;;21.40;99.90;;;;;;4880764;29;20488;-79
2023/08/05 11:39:03;;;;;;;15.27;14.77;;;21.50;99.90;;;;;;4887005;29;20454;-80
2023/08/05 11:41:35;;;;;;;14.90;14.50;;;21.50;99.90;;;;;;4884109;29;20500;-81
2023/08/05 11:44:07;;;;;;;15.57;15.00;;;21.50;99.90;;;;;;4882522;29;20459;-80
2023/08/05 11:46:49;;;;;;;15.67;15.07;;;21.40;99.90;;;;;;4884552;29;20475;-80
2023/08/05 11:49:31;;;;;;;15.70;15.10;;;21.40;99.90;;;;;;4885087;29;20466;-80
2023/08/05 11:52:16;;;;;;;14.77;14.33;;;21.40;99.90;;;;;;4879537;29;20569;-80
2023/08/05 11:54:56;;;;;;;15.27;14.67;;;21.30;99.90;;;;;;4884448;29;20510;-78
2023/08/05 11:57:28;;;;;;;14.80;14.30;;;21.30;99.90;;;;;;4886695;29;20467;-77
2023/08/05 12:00:04;;;;;;;15.10;14.43;;;21.30;99.90;;;;;;4884880;29;20578;-79
2023/08/05 12:02:35;;;;;;;14.77;14.23;;;21.20;99.90;;;;;;4885084;29;20481;-78
2023/08/05 12:05:05;;;;;;;14.73;14.23;;;21.20;99.90;;;;;;4885217;29;20968;-79
2023/08/05 12:07:41;;;;;;;14.83;14.30;;;21.10;99.90;;;;;;4885345;29;20472;-80
2023/08/05 12:10:19;;;;;;;15.33;14.73;;;21.10;99.90;;;;;;4886338;29;20463;-83
2023/08/05 12:12:57;;;;;;;15.17;14.57;;;21.10;99.90;;;;;;4887596;29;20495;-86
2023/08/05 12:15:36;;;;;;;14.57;14.17;;;21.00;99.90;;;;;;4889093;29;20498;-85
2023/08/05 12:18:09;;;;;;;14.93;14.40;;;21.00;99.90;;;;;;4888768;29;20458;-83
2023/08/05 12:20:47;;;;;;;15.80;15.00;;;20.90;99.90;;;;;;4885599;29;20460;-83
2023/08/05 12:23:29;;;;;;;15.70;15.10;;;20.90;99.90;;;;;;4888807;29;20464;-85
2023/08/05 12:26:08;;;;;;;15.90;15.30;;;20.80;99.90;;;;;;4908534;29;20198;-83
2023/08/05 12:28:51;;;;;;;15.27;14.77;;;20.80;99.90;;;;;;4894348;29;20531;-80
2023/08/05 12:31:36;;;;;;;14.70;14.30;;;20.80;99.90;;;;;;4889601;29;20525;-82
2023/08/05 12:34:19;;;;;;;15.20;14.70;;;20.70;99.90;;;;;;4889748;29;20463;-83
2023/08/05 12:36:57;;;;;;;15.57;15.07;;;20.70;99.90;;;;;;4894432;29;20491;-83
2023/08/05 12:39:32;;;;;;;15.67;14.93;;;20.50;99.90;;;;;;4890631;29;20465;-85
2023/08/05 12:42:13;;;;;;;15.73;15.23;;;20.50;99.90;;;;;;4889682;29;20482;-81
2023/08/05 12:44:54;;;;;;;15.23;14.80;;;20.60;99.90;;;;;;4887862;29;20547;-82
2023/08/05 12:47:30;;;;;;;15.43;14.83;;;20.60;99.90;;;;;;4887565;29;20561;-80
2023/08/05 12:50:10;;;;;;;15.27;14.77;;;20.60;99.90;;;;;;4887021;29;20905;-81
2023/08/05 12:52:41;;;;;;;15.20;14.70;;;20.70;99.90;;;;;;4881072;29;20937;-81
2023/08/05 12:55:16;;;;;;;14.00;13.60;;;20.60;99.90;;;;;;4887280;29;20474;-82
2023/08/05 12:57:52;;;;;;;14.80;14.30;;;20.50;99.90;;;;;;4888025;29;20495;-81
2023/08/05 13:00:27;;;;;;;15.07;14.57;;;20.50;99.90;;;;;;4886335;29;21045;-81
2023/08/05 13:03:00;;;;;;;14.67;14.17;;;20.40;99.90;;;;;;4890489;29;20510;-80
2023/08/05 13:05:29;;;;;;;14.77;14.37;;;20.50;99.90;;;;;;4887318;29;20474;-79